Tea, SD (57064)

1:24 AM CDT on August 29, 2015 (GMT -0500)
NonFedAWOS | | Change Station
CLOSE
Current Station
Personal Weather Station
Location: Tea, SD
Elevation: 1515 ft
Nearby Weather Stations

Elev 1515 ft 43.46 °N, 96.80 °W | Updated 29 minutes ago

Clear
Clear
57 °F
Feels Like 57 °F
N
0
Wind Variable Wind from North
Gusts 0.0 mph

Today
High -- | Low -- °F
--% Chance of Precip.
Yesterday
High -- | Low -- °F
Precip. -- in
6:47 AM 8:08 PM
Full, 100% visible
Pressure 30.03 in
Visibility 10.0 miles
Clouds Clear
Dew Point 57 °F
Humidity 100%
Rainfall in
Snow Depth Not available.
UV 0 out of 12
Pollen 3.10 out of 12
Air Quality Not available.
Flu Activity Not available.
METAR KFSD 290556Z AUTO 00000KT 10SM CLR 13/13 A3004 RMK AO2 SLP169 T01330128 10206 20133 402220133 53005 TSNO
Pressure 30.03 in
Visibility 10.0 miles
Clouds Clear
Dew Point 57 °F
Humidity 100%
Rainfall in
Snow Depth Not available.
UV 0 out of 12
Pollen 3.10 out of 12
Air Quality Not available.
Flu Activity Not available.
METAR KFSD 290556Z AUTO 00000KT 10SM CLR 13/13 A3004 RMK AO2 SLP169 T01330128 10206 20133 402220133 53005 TSNO

10-Day Weather Forecast

×

Almanac

Astronomy

Aug. 29, 2015 Rise Set
Actual Time
Civil Twilight
Nautical Twilight
Astronomical Twilight
Moon
Length of Visible Light
Length of Day
Tomorrow will be .
, % of the Moon is Illuminated

Today's Extremes

State Highs State Lows

Community

WunderPhotos

Upload Photos

1,850,622 photos uploaded!

WunderBlogs® & News

Nearby

Air Quality

  Air Quality AQ Index Pollutant
Not available.

Snow Depth

Station Depth Elevation

Earthquake Activity

City Distance Mag. Time & Date
Minimum magnitude displayed is 2.5.

Coastal Water Temperatures

Place Temperature

Stations

Nearby Weather Stations

Station Location Temp. Windchill Dew Point Humidity Wind Precip. Elev Updated Type